Tiempo atmosférico en la estación meteorológica de Badajoz, Badajoz (175 m.)



Fecha
DESCASC
Temp. máxima en grados centígrados (hora)
DESCASC
Temp. mínima en grados centígrados (hora)
DESCASC
Temp. media en grados centígrados
DESCASC
Racha de viento máxima en m/sg (hora)
DESCASC
Velocidad máxima media en intervalos de 10 minutos(hora)
DESCASC
Precipitaciones diarias en mm
DESCASC
Precipitaciones de 00:00 a 06:00 en mm
DESCASC
Precipitaciones de 06:00 a 12:00 en mm
DESCASC
Precipitaciones de 12:00 a 18:00 en mm
DESCASC
Precipitaciones de 18:00 a 24:00 en mm
DESCASC
11-12-2019 16.6 (16:10) 4 (00:30) 10.3 8.89 (14:40) 5 (13:40) 0.6 0 0.6 0 0
10-12-2019 12.3 (16:30) 4.1 (03:40) 8.2 4.44 (13:40) 1.94 (06:30) 0 0 0 0 0
09-12-2019 19.4 (15:50) 6.3 (23:59) 12.8 4.72 (03:50) 2.78 (04:30) 0 0 0 0 0
08-12-2019 13 (17:10) 3.4 (00:00) 8.2 2.78 (10:00) 1.39 (10:00) 0.4 0 0 0 0.4
07-12-2019 18.1 (16:30) 3.5 (00:00) 10.8 4.17 (12:50) 2.22 (12:00) 0 0 0 0 0
06-12-2019 18.2 (16:10) 5.7 (00:00) 12 6.67 (14:30) 4.44 (03:20) 0 0 0 0 0
05-12-2019 17.6 (16:00) 5.8 (00:00) 11.7 8.33 (14:10) 5 (22:20) 0 0 0 0 0
04-12-2019 15.4 (14:20) 4.4 (00:00) 9.9 4.44 (12:50) 2.78 (05:50) 0 0 0 0 0
03-12-2019 16.2 (15:10) 6.6 (00:00) 11.4 9.72 (14:20) 6.94 (11:50) 0 0 0 0 0
02-12-2019 15.3 (14:10) 8.3 (00:00) 11.8 11.11 (14:20) 6.67 (14:10) 0 0 0 0 0
01-12-2019 15.9 (14:00) 8.8 (00:00) 12.3 9.17 (20:00) 4.72 (14:30) 3.4 0.4 0.8 1.2 1
30-11-2019 18.4 (13:50) 11.1 (00:00) 14.8 9.44 (16:10) 5.28 (16:10) 1.6 0 0 0 1.6
29-11-2019 17.9 (15:30) 12.9 (00:00) 15.4 6.39 (13:20) 3.89 (12:10) 0 0 0 0 0
28-11-2019 16.7 (15:10) 10.2 (00:00) 13.5 9.17 (12:00) 4.72 (13:00) 0 0 0 0 0
27-11-2019 18.7 (15:40) 10.9 (00:00) 14.8 8.61 (13:50) 5 (13:40) 1.8 1.8 0 0 0
26-11-2019 18.7 (15:00) 12.2 (00:00) 15.5 11.67 (15:20) 6.11 (15:10) 5.8 1 0.6 2.4 1.8
25-11-2019 19.6 (16:20) 12.2 (00:00) 15.9 9.44 (05:30) 4.44 (06:40) 2 1.4 0.6 0 0
24-11-2019 15.5 (13:20) 5.3 (00:00) 10.4 6.39 (22:50) 3.61 (21:30) 0 0 0 0 0
23-11-2019 16.7 (14:20) 8.4 (00:00) 12.6 12.78 (00:30) 6.67 (04:10) 0.4 0.4 0 0 0
22-11-2019 18 (15:40) 10.1 (00:00) 14.1 14.72 (23:50) 8.61 (23:50) 29.6 1.8 13.4 14.4 0
21-11-2019 16.4 (15:20) 9.4 (00:00) 12.9 5.83 (15:10) 3.33 (15:00) 1.6 0 1.6 0 0
20-11-2019 14.3 (16:10) 8.3 (00:00) 11.3 7.78 (08:50) 4.17 (08:10) 17.6 3 13.2 0.6 0.8
19-11-2019 12.5 (15:40) 2.8 (00:00) 7.6 3.33 (18:30) 1.67 (17:00) 0 0 0 0 0
18-11-2019 18.3 (16:00) 6.1 (00:00) 12.2 7.78 (00:10) 4.44 (00:30) 0 0 0 0 0
17-11-2019 16.4 (15:20) 7.6 (00:00) 12 9.72 (23:50) 5.28 (23:00) 6.8 1 0.8 4.8 0.2
16-11-2019 15.8 (13:40) -0.6 (-00:0) 7.6 7.78 (16:00) 4.72 (16:00) 0 0 0 0 0
15-11-2019 15.2 (15:10) 5.5 (00:00) 10.3 11.67 (10:30) 6.94 (17:20) 0 0 0 0 0
14-11-2019 15 (16:00) 8.2 (00:00) 11.6 17.22 (17:20) 9.72 (13:30) 2 0 0.4 1.6 0
13-11-2019 20.2 (14:50) 11.6 (00:00) 15.9 11.67 (11:40) 6.67 (11:40) 1.2 0 1.2 0 0
12-11-2019 19.7 (15:20) 5.3 (00:00) 12.5 8.89 (18:10) 5.56 (15:50) 0 0 0 0 0

Gráficas

Temp. máximas Temp. mínimas Temp. medias Precipitaciones Rachas de viento máximas Velocidades máximas media en intervalos de 10 minutos

Datos horarios

Fecha y hora oficial Temperatura (ºC) Velocidad del viento (km/h) Dirección del viento Racha (km/h) Dirección de racha Precipitación (mm) Presión (hPa) Tendencia (hPa) Humedad (%)
2019-12-11 23:00:00 6.6 8 Noroeste 20 Noroeste 0 -- -- 81
2019-12-11 22:00:00 6 10 Noroeste 16 Noroeste 0 -- -- 84
2019-12-11 21:00:00 6.1 6 Noroeste 11 Noroeste 0 -- -- 81
2019-12-11 20:00:00 9.3 9 Noroeste 20 Noroeste 0 -- -- 69
2019-12-11 19:00:00 10.5 11 Noroeste 18 Noroeste 0 -- -- 66
2019-12-11 18:00:00 13 9 Noroeste 17 Noroeste 0 -- -- 61
2019-12-11 17:00:00 15.3 12 Noroeste 20 Noroeste 0 -- -- 55
2019-12-11 16:00:00 16.4 12 Noroeste 25 Noroeste 0 -- -- 56
2019-12-11 15:00:00 15.7 14 Noroeste 32 Noroeste 0 -- -- 63
2019-12-11 14:00:00 15.7 16 Noroeste 28 Oeste 0 -- -- 69
2019-12-11 13:00:00 14.2 15 Noroeste 31 Noroeste 0 -- -- 79
2019-12-11 12:00:00 10.3 9 Oeste 28 Oeste 0 -- -- 100
2019-12-11 11:00:00 7.9 6 Sudoeste 14 Sudoeste 0 -- -- 100
2019-12-11 10:00:00 7.1 9 Sudoeste 17 Sudoeste 0.6 -- -- 100
2019-12-11 09:00:00 6.5 6 Sudoeste 12 Oeste 0 -- -- 100
2019-12-11 08:00:00 5.8 4 Sudoeste 16 Sudoeste 0 -- -- 100
2019-12-11 07:00:00 4.9 2 Sudoeste 8 Sudoeste 0 -- -- 100
2019-12-11 06:00:00 4.4 0 Calma 4 Sudoeste 0 -- -- 100
2019-12-11 05:00:00 4.6 4 Sur 6 Sur 0 -- -- 99
2019-12-11 04:00:00 5 2 Sur 5 Sur 0 -- -- 99
2019-12-11 03:00:00 5.4 0 Calma 5 Sur 0 -- -- 99
2019-12-11 02:00:00 4.6 0 Calma 4 Norte 0 -- -- 99
2019-12-11 01:00:00 4.2 0 Calma 6 Norte 0 -- -- 98
2019-12-11 00:00:00 4.3 2 Noroeste 4 Norte 0 -- -- 96
2019-12-10 23:00:00 5.4 0 Calma 3 Sur 0 -- -- 95
2019-12-10 22:00:00 6.8 3 Sudoeste 4 Sudoeste 0 -- -- 95
2019-12-10 21:00:00 7.5 0 Calma 8 Norte 0 -- -- 95
2019-12-10 20:00:00 7.8 4 Noroeste 7 Noroeste 0 -- -- 93
2019-12-10 19:00:00 8.9 3 Norte 5 Nordeste 0 -- -- 89
2019-12-10 18:00:00 10.7 3 Este 8 Sudeste 0 -- -- 84
2019-12-10 17:00:00 12 4 Este 9 Este 0 -- -- 80
2019-12-10 16:00:00 12 4 Nordeste 10 Norte 0 -- -- 80
2019-12-10 15:00:00 11.2 3 Nordeste 14 Este 0 -- -- 85
2019-12-10 14:00:00 10.3 5 Este 16 Este 0 -- -- 89
2019-12-10 13:00:00 9.5 5 Este 12 Este 0 -- -- 99
2019-12-10 12:00:00 8.4 7 Nordeste 12 Norte 0 -- -- 100
2019-12-10 11:00:00 7.1 3 Nordeste 11 Nordeste 0 -- -- 100
2019-12-10 10:00:00 6.4 6 Nordeste 12 Nordeste 0 -- -- 100
2019-12-10 09:00:00 6 4 Nordeste 13 Norte 0 -- -- 100
2019-12-10 08:00:00 5.5 4 Este 11 Nordeste 0 -- -- 100
2019-12-10 07:00:00 5.4 5 Nordeste 10 Nordeste 0 -- -- 100
2019-12-10 06:00:00 5.4 5 Nordeste 9 Nordeste 0 -- -- 99
2019-12-10 05:00:00 5.9 4 Este 11 Nordeste 0 -- -- 99
2019-12-10 04:00:00 4.1 0 Calma 4 Norte 0 -- -- 98
2019-12-10 03:00:00 5 0 Calma 8 Nordeste 0 -- -- 98
2019-12-10 02:00:00 4.7 3 Nordeste 4 Nordeste 0 -- -- 96
2019-12-10 01:00:00 5.5 0 Calma 6 Norte 0 -- -- 96
2019-12-10 00:00:00 6.3 2 Noroeste 4 Noroeste 0 -- -- 95
2019-12-09 23:00:00 7 3 Norte 5 Norte 0 -- -- 95
2019-12-09 22:00:00 7.5 0 Calma 3 Sudoeste 0 -- -- 91
2019-12-09 21:00:00 9.1 0 Calma 6 Noroeste 0 -- -- 90
2019-12-09 20:00:00 9.9 4 Nordeste 7 Norte 0 -- -- 87
2019-12-09 19:00:00 11.9 2 Norte 6 Sudeste 0 -- -- 78
2019-12-09 18:00:00 14.6 3 Nordeste 10 Nordeste 0 -- -- 69
2019-12-09 17:00:00 17 6 Nordeste 13 Nordeste 0 -- -- 59
2019-12-09 16:00:00 19.3 4 Norte 12 Nordeste 0 -- -- 52
2019-12-09 15:00:00 18.5 2 Oeste 12 Norte 0 -- -- 53
2019-12-09 14:00:00 17.5 3 Nordeste 11 Norte 0 -- -- 66
2019-12-09 13:00:00 16.2 3 Norte 8 Norte 0 -- -- 74
2019-12-09 12:00:00 14.1 3 Norte 7 Nordeste 0 -- -- 86
2019-12-09 11:00:00 12 3 Nordeste 6 Nordeste 0 -- -- 100
2019-12-09 10:00:00 10 0 Calma 5 Norte 0 -- -- 99
2019-12-09 09:00:00 9.4 0 Calma 8 Noroeste 0 -- -- 98
2019-12-09 08:00:00 9.5 0 Calma 3 Nordeste 0 -- -- 99
2019-12-09 07:00:00 11 3 Oeste 5 Oeste 0 -- -- 99
2019-12-09 06:00:00 12.4 5 Norte 9 Norte 0 -- -- 99
2019-12-09 05:00:00 12.5 4 Norte 15 Norte 0 -- -- 99
2019-12-09 04:00:00 12.8 5 Norte 17 Noroeste 0 -- -- 99
2019-12-09 03:00:00 12.6 0 Calma 6 Sudoeste 0 -- -- 99
2019-12-09 02:00:00 12.7 4 Sur 8 Sur 0 -- -- 99
2019-12-09 01:00:00 12.8 0 Calma 6 Oeste 0 -- -- 99
2019-12-09 00:00:00 12.7 0 Calma 7 Sudoeste 0 -- -- 99
2019-12-08 23:00:00 12.5 4 Sudoeste 8 Sudoeste 0 -- -- 98
2019-12-08 22:00:00 12.4 4 Sur 5 Sur 0 -- -- 98
2019-12-08 21:00:00 12.5 0 Calma 2 Noroeste 0.2 -- -- 97
2019-12-08 20:00:00 12.5 0 Calma 2 Sudeste 0.2 -- -- 97
2019-12-08 19:00:00 12.6 0 Calma 4 Sudeste 0 -- -- 95
2019-12-08 18:00:00 12.8 0 Calma 3 Sudeste 0 -- -- 94
2019-12-08 17:00:00 12.9 0 Calma 5 Sur 0 -- -- 89
2019-12-08 16:00:00 12.5 2 Sur 6 Sudoeste 0 -- -- 89
2019-12-08 15:00:00 11.4 0 Calma 6 Sudoeste 0 -- -- 91
2019-12-08 14:00:00 9.8 3 Sudoeste 7 Sudoeste 0 -- -- 95
2019-12-08 13:00:00 8.6 3 Sur 7 Sur 0 -- -- 98
2019-12-08 12:00:00 7.3 0 Calma 8 Sur 0 -- -- 99
2019-12-08 11:00:00 6.6 3 Sudoeste 6 Sur 0 -- -- 100
2019-12-08 10:00:00 5.6 5 Sudeste 10 Sudeste 0 -- -- 100
2019-12-08 09:00:00 3.8 0 Calma 5 Noroeste 0 -- -- 99
2019-12-08 08:00:00 3.5 0 Calma 3 Norte 0 -- -- 99
2019-12-08 07:00:00 3.5 0 Calma 5 Oeste 0 -- -- 98
2019-12-08 06:00:00 3.9 0 Calma 3 Sudeste 0 -- -- 98
2019-12-08 05:00:00 3.9 0 Calma 4 Noroeste 0 -- -- 97
2019-12-08 04:00:00 4.1 0 Calma 3 Noroeste 0 -- -- 97
2019-12-08 03:00:00 4.5 0 Calma 5 Noroeste 0 -- -- 97
2019-12-08 02:00:00 5 2 Oeste 4 Oeste 0 -- -- 96
2019-12-08 01:00:00 5.4 0 Calma 6 Norte 0 -- -- 96
2019-12-08 00:00:00 5.9 2 Sudeste 5 Noroeste 0 -- -- 95
2019-12-07 23:00:00 6.6 0 Calma 4 Sudoeste 0 -- -- 93
2019-12-07 22:00:00 7.5 0 Calma 4 Noroeste 0 -- -- 92
2019-12-07 21:00:00 8.8 2 Sur 3 Sur 0 -- -- 90
2019-12-07 20:00:00 9.7 3 Norte 5 Oeste 0 -- -- 85
2019-12-07 19:00:00 11.8 2 Sur 5 Sur 0 -- -- 77
2019-12-07 18:00:00 14.7 4 Sur 6 Sur 0 -- -- 71
2019-12-07 17:00:00 17.2 2 Sur 9 Norte 0 -- -- 60
2019-12-07 16:00:00 17.9 3 Norte 10 Norte 0 -- -- 57
2019-12-07 15:00:00 17 3 Nordeste 10 Nordeste 0 -- -- 61
2019-12-07 14:00:00 15.7 4 Este 13 Este 0 -- -- 64
2019-12-07 13:00:00 14 7 Nordeste 15 Nordeste 0 -- -- 69
2019-12-07 12:00:00 12.3 8 Nordeste 15 Nordeste 0 -- -- 78
2019-12-07 11:00:00 8.8 3 Nordeste 6 Nordeste 0 -- -- 97
2019-12-07 10:00:00 5.5 4 Norte 5 Norte 0 -- -- 99
2019-12-07 09:00:00 3.6 0 Calma 5 Norte 0 -- -- 98
2019-12-07 08:00:00 3.9 0 Calma 4 Oeste 0 -- -- 97
2019-12-07 07:00:00 3.9 4 Norte 7 Norte 0 -- -- 96
2019-12-07 06:00:00 4.9 2 Sudeste 7 Sudoeste 0 -- -- 96
2019-12-07 05:00:00 5.2 4 Sudoeste 8 Sudoeste 0 -- -- 96
2019-12-07 04:00:00 5.4 2 Nordeste 10 Norte 0 -- -- 95
2019-12-07 03:00:00 6.1 3 Norte 7 Norte 0 -- -- 94
2019-12-07 02:00:00 6.6 3 Nordeste 5 Sudeste 0 -- -- 90
2019-12-07 01:00:00 8 0 Calma 9 Nordeste 0 -- -- 89
2019-12-07 00:00:00 8.1 0 Calma 12 Noroeste 0 -- -- 87
2019-12-06 23:00:00 8.6 6 Noroeste 10 Noroeste 0 -- -- 87
2019-12-06 22:00:00 9 3 Noroeste 6 Nordeste 0 -- -- 86
2019-12-06 21:00:00 9.8 6 Norte 13 Norte 0 -- -- 83
2019-12-06 20:00:00 10.9 10 Nordeste 14 Norte 0 -- -- 81
2019-12-06 19:00:00 11.7 6 Norte 9 Norte 0 -- -- 75
2019-12-06 18:00:00 14.6 8 Nordeste 13 Nordeste 0 -- -- 65
2019-12-06 17:00:00 17.2 6 Nordeste 15 Nordeste 0 -- -- 56
2019-12-06 16:00:00 17.9 11 Nordeste 23 Nordeste 0 -- -- 55
2019-12-06 15:00:00 17.9 11 Nordeste 24 Nordeste 0 -- -- 58
2019-12-06 14:00:00 17 8 Nordeste 23 Nordeste 0 -- -- 60
2019-12-06 13:00:00 16 11 Este 21 Nordeste 0 -- -- 63
2019-12-06 12:00:00 14.3 9 Nordeste 22 Nordeste 0 -- -- 69
2019-12-06 11:00:00 12 10 Nordeste 17 Nordeste 0 -- -- 79
2019-12-06 10:00:00 8.8 7 Nordeste 15 Nordeste 0 -- -- 91
2019-12-06 09:00:00 6.2 8 Norte 12 Norte 0 -- -- 95
2019-12-06 08:00:00 6 3 Norte 12 Nordeste 0 -- -- 91
2019-12-06 07:00:00 7.3 7 Nordeste 13 Nordeste 0 -- -- 92
2019-12-06 06:00:00 7.1 8 Nordeste 13 Nordeste 0 -- -- 91
2019-12-06 05:00:00 7.7 8 Nordeste 15 Nordeste 0 -- -- 89
2019-12-06 04:00:00 8.4 11 Nordeste 21 Norte 0 -- -- 87
2019-12-06 03:00:00 7.2 10 Norte 14 Norte 0 -- -- 92
2019-12-06 02:00:00 7.3 2 Norte 11 Nordeste 0 -- -- 89
2019-12-06 01:00:00 8 6 Nordeste 11 Nordeste 0 -- -- 86
2019-12-06 00:00:00 8.7 4 Nordeste 15 Nordeste 0 -- -- 83
2019-12-05 23:00:00 10.6 9 Nordeste 22 Nordeste 0 -- -- 77
2019-12-05 22:00:00 10.9 17 Norte 23 Nordeste 0 -- -- 76
2019-12-05 21:00:00 11.5 15 Nordeste 21 Norte 0 -- -- 74
2019-12-05 20:00:00 11.7 10 Nordeste 18 Nordeste 0 -- -- 74
2019-12-05 19:00:00 14 11 Nordeste 22 Nordeste 0 -- -- 64
2019-12-05 18:00:00 15.4 6 Nordeste 18 Este 0 -- -- 62
2019-12-05 17:00:00 16.8 6 Nordeste 22 Este 0 -- -- 55
2019-12-05 16:00:00 17.6 9 Nordeste 25 Nordeste 0 -- -- 51
2019-12-05 15:00:00 17 10 Nordeste 30 Norte 0 -- -- 55
2019-12-05 14:00:00 17 9 Nordeste 25 Nordeste 0 -- -- 56
2019-12-05 13:00:00 16.1 12 Nordeste 23 Nordeste 0 -- -- 58
2019-12-05 12:00:00 14.2 13 Nordeste 25 Norte 0 -- -- 65
2019-12-05 11:00:00 11.2 14 Nordeste 22 Nordeste 0 -- -- 75
2019-12-05 10:00:00 8.7 7 Nordeste 12 Nordeste 0 -- -- 85
2019-12-05 09:00:00 6 4 Oeste 9 Nordeste 0 -- -- 92
2019-12-05 08:00:00 5.8 2 Norte 6 Nordeste 0 -- -- 93
2019-12-05 07:00:00 6.2 2 Noroeste 6 Norte 0 -- -- 92
2019-12-05 06:00:00 6.6 5 Norte 8 Norte 0 -- -- 90
2019-12-05 05:00:00 7.4 3 Noroeste 9 Norte 0 -- -- 88
2019-12-05 04:00:00 8 2 Norte 11 Nordeste 0 -- -- 86
2019-12-05 03:00:00 8.9 4 Nordeste 13 Norte 0 -- -- 84
2019-12-05 02:00:00 10.1 11 Nordeste 17 Norte 0 -- -- 80
2019-12-05 01:00:00 10.2 3 Noroeste 6 Noroeste 0 -- -- 86
2019-12-05 00:00:00 10.3 3 Norte 7 Noroeste 0 -- -- 87
2019-12-04 23:00:00 10.6 2 Noroeste 4 Noroeste 0 -- -- 87
2019-12-04 22:00:00 11.1 3 Norte 13 Nordeste 0 -- -- 84
2019-12-04 21:00:00 10.9 10 Nordeste 13 Nordeste 0 -- -- 84
2019-12-04 20:00:00 10.7 3 Noroeste 5 Oeste 0 -- -- 84
2019-12-04 19:00:00 11.2 2 Oeste 3 Oeste 0 -- -- 78
2019-12-04 18:00:00 12.5 0 Calma 2 Sudoeste 0 -- -- 74
2019-12-04 17:00:00 14.1 0 Calma 9 Norte 0 -- -- 64
2019-12-04 16:00:00 14.1 6 Norte 14 Norte 0 -- -- 67
2019-12-04 15:00:00 13.8 9 Nordeste 14 Nordeste 0 -- -- 65
2019-12-04 14:00:00 14.7 4 Oeste 8 Sur 0 -- -- 62
2019-12-04 13:00:00 13.7 3 Este 16 Nordeste 0 -- -- 63
2019-12-04 12:00:00 11.3 3 Nordeste 9 Norte 0 -- -- 73
2019-12-04 11:00:00 8.5 3 Norte 8 Norte 0 -- -- 86
2019-12-04 10:00:00 6.1 0 Calma 6 Sudoeste 0 -- -- 96
2019-12-04 09:00:00 5.5 2 Sudoeste 10 Sudoeste 0 -- -- 94
2019-12-04 08:00:00 5.9 6 Nordeste 12 Nordeste 0 -- -- 92
2019-12-04 07:00:00 6.1 6 Nordeste 10 Nordeste 0 -- -- 94
2019-12-04 06:00:00 5.6 4 Norte 12 Nordeste 0 -- -- 97
2019-12-04 05:00:00 4.5 5 Norte 8 Norte 0 -- -- 96
2019-12-04 04:00:00 4.4 4 Norte 5 Norte 0 -- -- 94
2019-12-04 03:00:00 5.4 3 Noroeste 5 Noroeste 0 -- -- 93
2019-12-04 02:00:00 5.8 2 Norte 6 Noroeste 0 -- -- 91
2019-12-04 01:00:00 6.4 3 Noroeste 6 Norte 0 -- -- 91
2019-12-04 00:00:00 6.9 3 Norte 11 Norte 0 -- -- 88
2019-12-03 23:00:00 8.1 4 Norte 9 Nordeste 0 -- -- 84
2019-12-03 22:00:00 8.7 2 Nordeste 8 Nordeste 0 -- -- 83
2019-12-03 21:00:00 9.1 4 Noroeste 18 Norte 0 -- -- 80
2019-12-03 20:00:00 9.1 5 Norte 17 Norte 0 -- -- 80
2019-12-03 19:00:00 10.7 15 Norte 18 Norte 0 -- -- 76
2019-12-03 18:00:00 12.7 13 Norte 26 Norte 0 -- -- 68
2019-12-03 17:00:00 14.5 19 Norte 29 Norte 0 -- -- 58
2019-12-03 16:00:00 15.7 18 Norte 31 Norte 0 -- -- 57
2019-12-03 15:00:00 16.1 17 Norte 35 Norte 0 -- -- 56
2019-12-03 14:00:00 15.5 20 Norte 31 Nordeste 0 -- -- 59
2019-12-03 13:00:00 14.3 20 Nordeste 32 Norte 0 -- -- 62
2019-12-03 12:00:00 12.9 19 Nordeste 32 Nordeste 0 -- -- 65
2019-12-03 11:00:00 10.7 22 Norte 30 Norte 0 -- -- 71
2019-12-03 10:00:00 8.5 17 Nordeste 24 Norte 0 -- -- 78
2019-12-03 09:00:00 6.7 11 Nordeste 18 Norte 0 -- -- 83
2019-12-03 08:00:00 6.9 15 Norte 26 Nordeste 0 -- -- 82
2019-12-03 07:00:00 6.9 10 Norte 23 Norte 0 -- -- 84
2019-12-03 06:00:00 7.2 16 Norte 22 Norte 0 -- -- 84
2019-12-03 05:00:00 8.1 19 Nordeste 26 Nordeste 0 -- -- 80
2019-12-03 04:00:00 7.9 13 Norte 21 Nordeste 0 -- -- 83
2019-12-03 03:00:00 7.8 15 Norte 23 Nordeste 0 -- -- 85
2019-12-03 02:00:00 8.1 12 Norte 17 Norte 0 -- -- 84
2019-12-03 01:00:00 8.3 8 Nordeste 13 Nordeste 0 -- -- 84
2019-12-03 00:00:00 8.8 12 Norte 14 Nordeste 0 -- -- 83
2019-12-02 23:00:00 9.3 9 Norte 12 Nordeste 0 -- -- 81
2019-12-02 22:00:00 10.2 10 Nordeste 18 Nordeste 0 -- -- 78
2019-12-02 21:00:00 12.3 9 Nordeste 21 Nordeste 0 -- -- 69
2019-12-02 20:00:00 12.6 10 Nordeste 24 Nordeste 0 -- -- 70
2019-12-02 19:00:00 13.1 12 Nordeste 32 Nordeste 0 -- -- 65
2019-12-02 18:00:00 13.5 17 Nordeste 33 Nordeste 0 -- -- 64
2019-12-02 17:00:00 14.2 19 Nordeste 31 Nordeste 0 -- -- 62
2019-12-02 16:00:00 15.3 13 Nordeste 33 Nordeste 0 -- -- 61
2019-12-02 15:00:00 14.7 16 Nordeste 40 Nordeste 0 -- -- 62
2019-12-02 14:00:00 15.1 17 Nordeste 37 Norte 0 -- -- 63
2019-12-02 13:00:00 14.3 17 Nordeste 32 Nordeste 0 -- -- 66
2019-12-02 12:00:00 13.6 21 Nordeste 32 Nordeste 0 -- -- 72
2019-12-02 11:00:00 11.7 18 Nordeste 38 Nordeste 0 -- -- 77
2019-12-02 10:00:00 10.6 20 Nordeste 35 Nordeste 0 -- -- 83
2019-12-02 09:00:00 10 20 Nordeste 32 Nordeste 0 -- -- 86
2019-12-02 08:00:00 10 21 Nordeste 32 Nordeste 0 -- -- 86
2019-12-02 07:00:00 9.7 20 Nordeste 31 Nordeste 0 -- -- 88
2019-12-02 06:00:00 9.6 16 Nordeste 29 Nordeste 0 -- -- 90
2019-12-02 05:00:00 9.3 17 Norte 31 Norte 0 -- -- 91
2019-12-02 04:00:00 9.5 21 Norte 29 Nordeste 0 -- -- 91
2019-12-02 03:00:00 9 13 Nordeste 19 Norte 0 -- -- 94
2019-12-02 02:00:00 8.3 6 Nordeste 9 Nordeste 0 -- -- 97
2019-12-02 01:00:00 8.9 9 Nordeste 16 Norte 0 -- -- 97
2019-12-02 00:00:00 8.8 5 Norte 11 Nordeste 0 -- -- 96
2019-12-01 23:00:00 9.2 5 Norte 13 Norte 0 -- -- 97
2019-12-01 22:00:00 9.2 5 Norte 14 Norte 0 -- -- 96
2019-12-01 21:00:00 10.2 11 Norte 19 Nordeste 0.2 -- -- 95
2019-12-01 20:00:00 11.5 17 Nordeste 33 Este 0.2 -- -- 96
2019-12-01 19:00:00 11.8 0 Calma 11 Norte 0.6 -- -- 95
2019-12-01 18:00:00 12.4 4 Oeste 18 Sudoeste 0.2 -- -- 93
2019-12-01 17:00:00 12.7 10 Oeste 21 Oeste 0.2 -- -- 87
2019-12-01 16:00:00 12.8 6 Sur 16 Sudoeste 0 -- -- 93
2019-12-01 15:00:00 12.4 9 Sudoeste 32 Sudoeste 0.8 -- -- 90
2019-12-01 14:00:00 15.9 16 Sudoeste 28 Sudoeste 0 -- -- 69
2019-12-01 13:00:00 14.7 7 Sudoeste 22 Sudoeste 0 -- -- 81
2019-12-01 12:00:00 13.2 10 Sudoeste 20 Sudoeste 0 -- -- 92
2019-12-01 11:00:00 12 10 Sudoeste 21 Sudoeste 0.2 -- -- 96
2019-12-01 10:00:00 11.3 11 Sudoeste 26 Sudoeste 0.4 -- -- 97
2019-12-01 09:00:00 11 14 Sudoeste 24 Sudoeste 0 -- -- 97
2019-12-01 08:00:00 10.8 9 Sudoeste 20 Sudoeste 0 -- -- 98
2019-12-01 07:00:00 11.2 9 Sudoeste 21 Sudoeste 0.2 -- -- 98
2019-12-01 06:00:00 11.2 11 Sudoeste 23 Oeste 0.4 -- -- 99
2019-12-01 05:00:00 10.9 10 Sudoeste 20 Sudoeste 0 -- -- 99
2019-12-01 04:00:00 10.1 6 Sur 13 Sudoeste 0 -- -- 99
2019-12-01 03:00:00 10.5 5 Sudoeste 12 Sudoeste 0 -- -- 99
2019-12-01 02:00:00 10.4 5 Sur 14 Sur 0 -- -- 98
2019-12-01 01:00:00 10.5 7 Sur 13 Sur 0 -- -- 97
2019-12-01 00:00:00 11.1 5 Sudoeste 12 Sudoeste 0 -- -- 96
2019-11-30 23:00:00 11.9 8 Sudoeste 16 Oeste 0 -- -- 94
2019-11-30 22:00:00 12.6 6 Sudoeste 13 Oeste 0 -- -- 95
2019-11-30 21:00:00 13.3 8 Sudoeste 13 Sudoeste 0 -- -- 95
2019-11-30 20:00:00 13.3 5 Sudoeste 23 Oeste 0 -- -- 94
2019-11-30 19:00:00 13.7 12 Noroeste 28 Noroeste 1.6 -- -- 95
2019-11-30 18:00:00 15.4 10 Sudoeste 28 Sudoeste 0 -- -- 92
2019-11-30 17:00:00 15.9 13 Sudoeste 34 Sudoeste 0 -- -- 86
2019-11-30 16:00:00 17.5 14 Sudoeste 32 Sur 0 -- -- 75
2019-11-30 15:00:00 17.6 17 Sur 30 Sudoeste 0 -- -- 73
2019-11-30 14:00:00 18.4 15 Sudoeste 28 Sur 0 -- -- 69
2019-11-30 13:00:00 16.7 14 Sudoeste 27 Sur 0 -- -- 81
2019-11-30 12:00:00 15.2 15 Sudoeste 26 Sudoeste 0 -- -- 87
2019-11-30 11:00:00 14.4 12 Sudoeste 23 Sudoeste 0 -- -- 91
2019-11-30 10:00:00 13.5 9 Sudoeste 18 Sudoeste 0 -- -- 96
2019-11-30 09:00:00 12.7 3 Sur 10 Sur 0 -- -- 98
2019-11-30 08:00:00 12.4 4 Sudoeste 14 Sur 0 -- -- 98
2019-11-30 07:00:00 12.2 5 Oeste 10 Oeste 0 -- -- 98
2019-11-30 06:00:00 12.1 6 Sur 9 Sur 0 -- -- 97
2019-11-30 05:00:00 12.6 4 Sur 6 Sur 0 -- -- 97
2019-11-30 04:00:00 12.9 3 Oeste 6 Sur 0 -- -- 94
2019-11-30 03:00:00 13.9 3 Sur 6 Sur 0 -- -- 94
2019-11-30 02:00:00 14.2 3 Sur 5 Sur 0 -- -- 92
2019-11-30 01:00:00 15 4 Sur 5 Sur 0 -- -- 90
2019-11-30 00:00:00 15.2 3 Sudoeste 6 Sudoeste 0 -- -- 89
2019-11-29 23:00:00 15.4 2 Sudoeste 9 Sudoeste 0 -- -- 87
2019-11-29 22:00:00 15.6 4 Sudoeste 8 Sudoeste 0 -- -- 86
2019-11-29 21:00:00 15.8 4 Sur 6 Sur 0 -- -- 85
2019-11-29 20:00:00 16.2 3 Sudoeste 10 Sudoeste 0 -- -- 83
2019-11-29 19:00:00 16.5 4 Sudoeste 12 Sudoeste 0 -- -- 80
2019-11-29 18:00:00 17.1 4 Sudoeste 14 Sudoeste 0 -- -- 78
2019-11-29 17:00:00 17.7 7 Sudoeste 16 Sudoeste 0 -- -- 76
2019-11-29 16:00:00 17.9 8 Sudoeste 18 Sur 0 -- -- 77
2019-11-29 15:00:00 17.5 10 Sur 18 Sudoeste 0 -- -- 78
2019-11-29 14:00:00 17.4 8 Sudoeste 23 Sudoeste 0 -- -- 80
2019-11-29 13:00:00 17.4 10 Sudoeste 22 Sudoeste 0 -- -- 81
2019-11-29 12:00:00 16.4 13 Sudoeste 22 Sudoeste 0 -- -- 85
2019-11-29 11:00:00 15.7 12 Sur 19 Sur 0 -- -- 90
2019-11-29 10:00:00 14.5 7 Sudoeste 14 Sudoeste 0 -- -- 95
2019-11-29 09:00:00 14 8 Sur 14 Sudoeste 0 -- -- 96
2019-11-29 08:00:00 13.9 8 Sur 12 Sur 0 -- -- 96
2019-11-29 07:00:00 13.9 6 Sudoeste 13 Sudoeste 0 -- -- 96
2019-11-29 06:00:00 13.9 6 Sudoeste 18 Sur 0 -- -- 97
2019-11-29 05:00:00 13.7 9 Sudoeste 17 Sudoeste 0 -- -- 97
2019-11-29 04:00:00 13.6 10 Sur 21 Sudoeste 0 -- -- 96
2019-11-29 03:00:00 13.6 9 Sudoeste 21 Sudoeste 0 -- -- 97
2019-11-29 02:00:00 13.1 10 Sur 15 Sur 0 -- -- 97
2019-11-29 01:00:00 13 9 Sudoeste 15 Sudoeste 0 -- -- 97
2019-11-29 00:00:00 13 7 Sudoeste 18 Sudoeste 0 -- -- 95
2019-11-28 23:00:00 13.7 12 Sudoeste 19 Sudoeste 0 -- -- 94
2019-11-28 22:00:00 14 10 Sudoeste 19 Sudoeste 0 -- -- 92
2019-11-28 21:00:00 13.8 9 Sudoeste 16 Sudoeste 0 -- -- 92
2019-11-28 20:00:00 14.1 5 Sudoeste 10 Sur 0 -- -- 90
2019-11-28 19:00:00 14.6 5 Sudoeste 13 Sur 0 -- -- 88
2019-11-28 18:00:00 15.6 8 Sur 17 Sur 0 -- -- 87
2019-11-28 17:00:00 15.9 8 Sudoeste 26 Sudoeste 0 -- -- 85
2019-11-28 16:00:00 16.2 11 Sudoeste 26 Sudoeste 0 -- -- 83
2019-11-28 15:00:00 16.6 10 Sudoeste 27 Sudoeste 0 -- -- 82
2019-11-28 14:00:00 16.3 14 Sudoeste 31 Sudoeste 0 -- -- 81
2019-11-28 13:00:00 16.4 17 Sudoeste 31 Sudoeste 0 -- -- 81
2019-11-28 12:00:00 15.5 14 Sudoeste 33 Sur 0 -- -- 84
2019-11-28 11:00:00 13.7 10 Sur 18 Sudoeste 0 -- -- 93
2019-11-28 10:00:00 12.6 8 Sudoeste 15 Sudoeste 0 -- -- 98
2019-11-28 09:00:00 11.8 6 Sur 10 Sur 0 -- -- 98
2019-11-28 08:00:00 11.6 0 Calma 11 Sur 0 -- -- 98
2019-11-28 07:00:00 11.7 7 Sur 19 Sur 0 -- -- 98
2019-11-28 06:00:00 11.6 11 Sur 17 Sur 0 -- -- 99
2019-11-28 05:00:00 11.4 8 Sudoeste 22 Sur 0 -- -- 99
2019-11-28 04:00:00 10.3 7 Sur 10 Sur 0 -- -- 98
2019-11-28 03:00:00 10.4 4 Sur 6 Sur 0 -- -- 96
2019-11-28 02:00:00 10.7 6 Sudoeste 11 Sudoeste 0 -- -- 96
2019-11-28 01:00:00 10.8 5 Sur 10 Sudoeste 0 -- -- 94
2019-11-28 00:00:00 10.9 7 Sur 13 Sur 0 -- -- 94
2019-11-27 23:00:00 11.2 5 Sur 10 Sudoeste 0 -- -- 92
2019-11-27 22:00:00 11.5 2 Oeste 10 Sudoeste 0 -- -- 90
2019-11-27 21:00:00 12.3 8 Sur 12 Sudoeste 0 -- -- 88
2019-11-27 20:00:00 13 5 Sudoeste 10 Sudoeste 0 -- -- 83
2019-11-27 19:00:00 14.4 6 Oeste 13 Sudoeste 0 -- -- 77
2019-11-27 18:00:00 16 8 Oeste 17 Oeste 0 -- -- 70
2019-11-27 17:00:00 16.9 7 Oeste 20 Oeste 0 -- -- 64
2019-11-27 16:00:00 17.7 12 Noroeste 30 Oeste 0 -- -- 61
2019-11-27 15:00:00 17.9 14 Sudoeste 26 Oeste 0 -- -- 60
2019-11-27 14:00:00 17.4 14 Oeste 31 Oeste 0 -- -- 61
2019-11-27 06:00:00 11.9 6 Sudoeste 12 Sudoeste 0 -- -- 97
2019-11-27 05:00:00 12.5 6 Sudoeste 16 Sudoeste 0 -- -- 96
2019-11-27 04:00:00 12.6 7 Sudoeste 12 Oeste 0 -- -- 95
2019-11-27 03:00:00 12.8 6 Sudoeste 14 Sudoeste 0 -- -- 95
2019-11-27 02:00:00 13.6 8 Sudoeste 25 Oeste 0.2 -- -- 92
2019-11-27 01:00:00 13.9 11 Oeste 26 Sudoeste 1.6 -- -- 98
2019-11-27 00:00:00 13.7 10 Sudoeste 19 Sudoeste 0 -- -- 97
2019-11-26 23:00:00 13.7 10 Sudoeste 22 Sur 0 -- -- 97
2019-11-26 22:00:00 14 7 Sudoeste 21 Sudoeste 0 -- -- 96
2019-11-26 21:00:00 14.7 12 Sudoeste 19 Sudoeste 0 -- -- 95
2019-11-26 20:00:00 15.4 10 Sudoeste 19 Oeste 0 -- -- 97
2019-11-26 19:00:00 15.6 10 Sudoeste 30 Sudoeste 1.8 -- -- 97
2019-11-26 18:00:00 15.9 14 Sudoeste 32 Sur 0.4 -- -- 95
2019-11-26 17:00:00 16.3 13 Sudoeste 31 Sudoeste 0.8 -- -- 93
2019-11-26 16:00:00 17.2 20 Sudoeste 42 Sudoeste 0.2 -- -- 87
2019-11-26 15:00:00 18.7 21 Sudoeste 42 Sudoeste 0 -- -- 79
2019-11-26 14:00:00 18 21 Sudoeste 40 Sudoeste 0.2 -- -- 83
2019-11-26 13:00:00 16.5 17 Sur 32 Sudoeste 0.8 -- -- 94
2019-11-26 12:00:00 16.5 14 Sur 26 Sudoeste 0 -- -- 92
2019-11-26 11:00:00 16 11 Sur 23 Sudoeste 0 -- -- 95
2019-11-26 10:00:00 15.4 10 Sudoeste 21 Sur 0 -- -- 99
2019-11-26 09:00:00 14.9 9 Sur 17 Sudoeste 0 -- -- 100
2019-11-26 08:00:00 14.8 8 Sudoeste 19 Sudoeste 0.2 -- -- 99
2019-11-26 07:00:00 14.8 9 Sudoeste 17 Sudoeste 0.4 -- -- 99
2019-11-26 06:00:00 14.5 6 Sudoeste 12 Sudoeste 0.6 -- -- 99
2019-11-26 05:00:00 14.3 5 Sur 12 Sudoeste 0.2 -- -- 99
2019-11-26 04:00:00 14.1 6 Sur 13 Sudoeste 0 -- -- 99
2019-11-26 03:00:00 12.9 3 Sudeste 6 Sudeste 0.2 -- -- 98
2019-11-26 02:00:00 12.5 3 Sudoeste 9 Sudoeste 0 -- -- 98
2019-11-26 01:00:00 12.2 5 Sudoeste 11 Sudoeste 0 -- -- 97
2019-11-26 00:00:00 12.2 5 Sudoeste 9 Sudoeste 0 -- -- 96
2019-11-25 23:00:00 12.8 5 Sur 9 Sur 0 -- -- 94
2019-11-25 22:00:00 13.5 5 Sur 9 Sur 0 -- -- 92
2019-11-25 21:00:00 14.3 2 Oeste 10 Sudoeste 0 -- -- 89
2019-11-25 20:00:00 14.9 5 Sudoeste 10 Oeste 0 -- -- 87
2019-11-25 19:00:00 15.7 5 Oeste 8 Oeste 0 -- -- 85
2019-11-25 18:00:00 17.6 5 Sudoeste 17 Oeste 0 -- -- 76
2019-11-25 17:00:00 18.7 8 Oeste 23 Oeste 0 -- -- 73
2019-11-25 16:00:00 19.2 10 Noroeste 21 Oeste 0 -- -- 72
2019-11-25 15:00:00 18.5 14 Oeste 25 Oeste 0 -- -- 71
2019-11-25 14:00:00 18 9 Oeste 21 Oeste 0 -- -- 79
2019-11-25 13:00:00 18 10 Oeste 21 Oeste 0 -- -- 77
2019-11-25 12:00:00 18.1 11 Oeste 24 Oeste 0 -- -- 78
2019-11-25 11:00:00 16.3 11 Sudoeste 24 Oeste 0 -- -- 91
2019-11-25 10:00:00 15.1 9 Sudoeste 14 Sudoeste 0 -- -- 99
2019-11-25 09:00:00 14.7 6 Sudoeste 23 Sudoeste 0 -- -- 99
2019-11-25 08:00:00 14.6 12 Sudoeste 25 Sudoeste 0 -- -- 99
2019-11-25 07:00:00 14.5 12 Sudoeste 31 Sudoeste 0.6 -- -- 98
2019-11-25 06:00:00 14.3 15 Sudoeste 34 Sudoeste 0.8 -- -- 98
2019-11-25 05:00:00 14 14 Sudoeste 31 Sur 0.6 -- -- 98
2019-11-25 04:00:00 13.6 12 Sur 26 Sudoeste 0 -- -- 97
2019-11-25 03:00:00 13.1 14 Sur 26 Sur 0 -- -- 97
2019-11-25 02:00:00 12.8 13 Sudoeste 30 Sudoeste 0 -- -- 97
2019-11-25 01:00:00 12.8 14 Sudoeste 26 Sudoeste 0 -- -- 96
2019-11-25 00:00:00 12.9 10 Sur 20 Sudoeste 0 -- -- 94
2019-11-24 23:00:00 13.3 12 Sur 23 Sudoeste 0 -- -- 89
2019-11-24 22:00:00 13.8 12 Sudoeste 22 Sudoeste 0 -- -- 85
2019-11-24 21:00:00 13.6 11 Sur 21 Sur 0 -- -- 84
2019-11-24 20:00:00 13.3 5 Sudoeste 11 Sudoeste 0 -- -- 85
2019-11-24 19:00:00 13.7 5 Sur 12 Sur 0 -- -- 83
2019-11-24 18:00:00 14.3 8 Sudoeste 17 Sudoeste 0 -- -- 79
2019-11-24 17:00:00 14.5 6 Sur 13 Sur 0 -- -- 78
2019-11-24 16:00:00 14.7 8 Sudoeste 18 Sur 0 -- -- 75
2019-11-24 15:00:00 14.8 8 Sudoeste 21 Sudoeste 0 -- -- 74
2019-11-24 14:00:00 15 9 Sudoeste 20 Sudoeste 0 -- -- 74
2019-11-24 13:00:00 14.9 8 Sur 18 Sudoeste 0 -- -- 76
2019-11-24 12:00:00 12.3 10 Sur 19 Sudoeste 0 -- -- 83
2019-11-24 11:00:00 9.3 8 Sudoeste 15 Sudoeste 0 -- -- 94
2019-11-24 10:00:00 7.3 6 Sudoeste 12 Sudoeste 0 -- -- 99
2019-11-24 09:00:00 6 2 Sudoeste 9 Sudoeste 0 -- -- 98
2019-11-24 08:00:00 5.3 2 Sudoeste 5 Oeste 0 -- -- 97
2019-11-24 07:00:00 5.6 3 Oeste 4 Oeste 0 -- -- 96
2019-11-24 06:00:00 6.5 4 Sudoeste 6 Sudoeste 0 -- -- 97
2019-11-24 05:00:00 6.7 0 Calma 6 Sudoeste 0 -- -- 97
2019-11-24 04:00:00 6.9 4 Sudoeste 10 Sudoeste 0 -- -- 95
2019-11-24 03:00:00 7.3 5 Sudoeste 8 Sudoeste 0 -- -- 95
2019-11-24 02:00:00 7.8 4 Oeste 11 Oeste 0 -- -- 92
2019-11-24 01:00:00 8.4 7 Noroeste 14 Oeste 0 -- -- 90
2019-11-24 00:00:00 8.4 4 Oeste 9 Sudoeste 0 -- -- 90
2019-11-23 23:00:00 9 5 Sudoeste 14 Sur 0 -- -- 86
2019-11-23 22:00:00 9.2 4 Sudoeste 10 Noroeste 0 -- -- 84
2019-11-23 21:00:00 10 5 Oeste 17 Noroeste 0 -- -- 80
2019-11-23 20:00:00 10.5 5 Sudoeste 12 Noroeste 0 -- -- 81
2019-11-23 19:00:00 11.5 5 Sudoeste 16 Noroeste 0 -- -- 77
2019-11-23 18:00:00 13.2 12 Noroeste 29 Noroeste 0 -- -- 69
2019-11-23 17:00:00 14.4 10 Oeste 27 Noroeste 0 -- -- 68
2019-11-23 16:00:00 16.1 18 Noroeste 35 Noroeste 0 -- -- 57
2019-11-23 15:00:00 16.7 21 Noroeste 37 Oeste 0 -- -- 54
2019-11-23 14:00:00 16.4 22 Noroeste 37 Oeste 0 -- -- 57
2019-11-23 13:00:00 15.2 16 Noroeste 36 Noroeste 0 -- -- 64
2019-11-23 12:00:00 14.3 23 Noroeste 40 Oeste 0 -- -- 69
2019-11-23 11:00:00 12.7 20 Oeste 35 Noroeste 0 -- -- 75
2019-11-23 10:00:00 11.1 12 Oeste 23 Oeste 0 -- -- 81
2019-11-23 09:00:00 9.8 6 Sur 22 Oeste 0 -- -- 87
2019-11-23 08:00:00 10.1 13 Oeste 28 Oeste 0 -- -- 85
2019-11-23 07:00:00 10.3 11 Oeste 27 Oeste 0 -- -- 87
2019-11-23 06:00:00 10.7 17 Oeste 38 Oeste 0 -- -- 90
2019-11-23 05:00:00 10.6 14 Oeste 45 Noroeste 0.4 -- -- 86
2019-11-23 04:00:00 11.1 17 Noroeste 42 Noroeste 0 -- -- 89
2019-11-23 03:00:00 11.4 21 Oeste 39 Oeste -- -- -- 83
2019-11-23 02:00:00 12 18 Oeste 39 Oeste 0 -- -- 81
2019-11-23 01:00:00 12.5 18 Oeste 46 Oeste 0 -- -- 82
2019-11-23 00:00:00 12.8 27 Oeste 53 Oeste 0 -- -- 81
2019-11-22 23:00:00 13.4 18 Sudoeste 37 Oeste 0 -- -- 78
2019-11-22 22:00:00 13.2 14 Sudoeste 33 Sudoeste 0 -- -- 80
2019-11-22 21:00:00 13.7 17 Sudoeste 37 Sudoeste 0 -- -- 81
2019-11-22 20:00:00 14.2 17 Oeste 35 Oeste 0 -- -- 79
2019-11-22 19:00:00 14.2 12 Oeste 44 Oeste 0 -- -- 81
2019-11-22 18:00:00 15.7 14 Oeste 32 Sudoeste 0 -- -- 71
2019-11-22 17:00:00 16.4 18 Oeste 47 Oeste 0 -- -- 70
2019-11-22 16:00:00 17.2 24 Oeste 43 Oeste 0 -- -- 68
2019-11-22 15:00:00 17.3 21 Oeste 42 Sudoeste 0.2 -- -- 75
2019-11-22 14:00:00 14.9 17 Oeste 51 Oeste 10.4 -- -- 95
2019-11-22 13:00:00 15.4 23 Sudoeste 46 Sur 3.8 -- -- 99
2019-11-22 12:00:00 14.4 20 Sudoeste 44 Sudoeste 3.2 -- -- 97
2019-11-22 11:00:00 14.3 24 Sudoeste 48 Sudoeste 2 -- -- 97
2019-11-22 10:00:00 13.6 20 Sur 45 Sudoeste 5.4 -- -- 97
2019-11-22 09:00:00 13.4 23 Sur 48 Sur 2.4 -- -- 96
2019-11-22 08:00:00 13 23 Sur 37 Sur 0 -- -- 96
2019-11-22 07:00:00 12.2 17 Sur 30 Sur 0.4 -- -- 97
2019-11-22 06:00:00 12 11 Sur 23 Sur 1.2 -- -- 98
2019-11-22 05:00:00 11.8 10 Sur 23 Sur 0.2 -- -- 99
2019-11-22 04:00:00 11.6 9 Sur 15 Sur 0.4 -- -- 99
2019-11-22 03:00:00 11.3 4 Sudoeste 15 Sudoeste 0 -- -- 99
2019-11-22 02:00:00 10.6 2 Sudoeste 6 Sudoeste 0 -- -- 99
2019-11-22 01:00:00 10.3 3 Sur 8 Sur 0 -- -- 98
2019-11-22 00:00:00 10.1 3 Sudoeste 8 Sur 0 -- -- 97
2019-11-21 23:00:00 10.7 5 Sur 8 Sur 0 -- -- 96
2019-11-21 22:00:00 11.6 4 Sur 7 Sur 0 -- -- 95
2019-11-21 21:00:00 11.7 4 Sur 7 Sudoeste 0 -- -- 96
2019-11-21 20:00:00 12 5 Sur 8 Sur 0 -- -- 94
2019-11-21 19:00:00 12.9 2 Sudeste 5 Sur 0 -- -- 89
2019-11-21 18:00:00 14 5 Sur 13 Sur 0 -- -- 86
2019-11-21 17:00:00 15.1 6 Sur 15 Sur 0 -- -- 82
2019-11-21 16:00:00 15.3 6 Sudoeste 21 Sudoeste 0 -- -- 78
2019-11-21 15:00:00 15.8 12 Sudoeste 20 Sudoeste 0 -- -- 77
2019-11-21 14:00:00 14.7 9 Sur 18 Sur 0 -- -- 86
2019-11-21 13:00:00 13.5 8 Sudoeste 14 Sudoeste 0 -- -- 92
2019-11-21 12:00:00 12.9 6 Sudoeste 19 Sudoeste 0 -- -- 94
2019-11-21 11:00:00 12.2 8 Sudoeste 17 Sudoeste 0 -- -- 98
2019-11-21 10:00:00 11.4 6 Sudoeste 14 Sudoeste 0.2 -- -- 99
2019-11-21 09:00:00 11.3 10 Sur 18 Sudoeste 0.8 -- -- 99
2019-11-21 08:00:00 11.3 8 Sudoeste 18 Sudoeste 0.6 -- -- 99
2019-11-21 07:00:00 11.1 7 Sudoeste 16 Sudoeste 0 -- -- 99
2019-11-21 06:00:00 11 7 Sur 18 Sur 0 -- -- 99
2019-11-21 05:00:00 10.6 4 Sudoeste 10 Sudoeste 0 -- -- 99
2019-11-21 04:00:00 10.6 6 Sudoeste 14 Sudoeste 0 -- -- 99
2019-11-21 03:00:00 10.5 6 Sudoeste 16 Sudoeste 0 -- -- 99
2019-11-21 02:00:00 10.4 6 Sudoeste 17 Sudoeste 0 -- -- 99
2019-11-21 01:00:00 9.7 5 Sur 10 Sur 0 -- -- 98
2019-11-21 00:00:00 9.4 4 Sudoeste 10 Sur 0 -- -- 97
2019-11-20 23:00:00 9.7 5 Sur 8 Sur 0 -- -- 97
2019-11-20 22:00:00 10 4 Sur 9 Sur 0 -- -- 97
2019-11-20 21:00:00 10.4 6 Sur 10 Sur 0 -- -- 96
2019-11-20 20:00:00 11.1 8 Sur 12 Sur 0.4 -- -- 95
2019-11-20 19:00:00 11.4 4 Sudoeste 7 Sudoeste 0.4 -- -- 94
2019-11-20 18:00:00 12.2 3 Noroeste 9 Noroeste 0.4 -- -- 88
2019-11-20 17:00:00 13.4 7 Noroeste 16 Oeste 0 -- -- 77
2019-11-20 16:00:00 14.2 9 Oeste 20 Sudoeste 0 -- -- 73
2019-11-20 15:00:00 12.7 3 Noroeste 12 Sudoeste 0.2 -- -- 93
2019-11-20 14:00:00 10.7 2 Oeste 6 Este 0 -- -- 94
2019-11-20 13:00:00 10.2 3 Sudeste 9 Este 0 -- -- 94
2019-11-20 12:00:00 9 2 Sudeste 7 Este 1.2 -- -- 97
2019-11-20 11:00:00 8.8 2 Este 10 Este 3.2 -- -- 96
2019-11-20 10:00:00 8.8 3 Sudeste 17 Sudeste 0.2 -- -- 95
2019-11-20 09:00:00 8.8 13 Sudeste 28 Sudeste 2 -- -- 94
2019-11-20 08:00:00 8.3 12 Sur 22 Sudeste 4.6 -- -- 97
2019-11-20 07:00:00 8.3 8 Sudeste 17 Sudeste 2 -- -- 97
2019-11-20 06:00:00 8.4 3 Este 10 Este 2.6 -- -- 96
2019-11-20 05:00:00 8.5 5 Nordeste 7 Nordeste 0.4 -- -- 94
2019-11-20 04:00:00 8.9 4 Nordeste 8 Nordeste 0 -- -- 93
2019-11-20 03:00:00 9.4 4 Nordeste 8 Nordeste 0 -- -- 90
2019-11-20 02:00:00 9.8 0 Calma 5 Este 0 -- -- 84
2019-11-20 01:00:00 9.5 0 Calma 4 Sudeste 0 -- -- 83
2019-11-20 00:00:00 9.3 0 Calma 5 Sudeste 0 -- -- 83
2019-11-19 23:00:00 9.3 3 Sudeste 5 Este 0 -- -- 81
2019-11-19 22:00:00 10 2 Sur 5 Sudeste 0 -- -- 81
2019-11-19 21:00:00 9.9 0 Calma 2 Este 0 -- -- 87
2019-11-19 20:00:00 10.1 0 Calma 4 Oeste 0 -- -- 84
2019-11-19 19:00:00 10.6 4 Noroeste 12 Oeste 0 -- -- 81
2019-11-19 18:00:00 11.9 3 Sudoeste 10 Sur 0 -- -- 73
2019-11-19 17:00:00 12.5 6 Sur 11 Sur 0 -- -- 69
2019-11-19 16:00:00 12.4 5 Sudoeste 9 Sudoeste 0 -- -- 71
2019-11-19 15:00:00 12.2 3 Sur 7 Sudoeste 0 -- -- 76
2019-11-19 14:00:00 11.5 2 Noroeste 6 Sudeste 0 -- -- 76
2019-11-19 13:00:00 10.5 2 Sur 11 Sudeste 0 -- -- 78
2019-11-19 12:00:00 9.5 4 Sudeste 9 Sudeste 0 -- -- 85
2019-11-19 11:00:00 7.2 2 Sudoeste 5 Sudoeste 0 -- -- 96
2019-11-19 10:00:00 5.6 0 Calma 3 Nordeste 0 -- -- 99
2019-11-19 09:00:00 4.2 0 Calma 2 Sudoeste 0 -- -- 99
2019-11-19 08:00:00 3.4 0 Calma 3 Norte 0 -- -- 98
2019-11-19 07:00:00 2.8 2 Oeste 4 Sudoeste 0 -- -- 97
2019-11-19 06:00:00 3 2 Sudeste 2 Sudeste 0 -- -- 97
2019-11-19 05:00:00 3.1 0 Calma 3 Sudeste 0 -- -- 96
2019-11-19 04:00:00 3.6 0 Calma 5 Norte 0 -- -- 95
2019-11-19 03:00:00 4 0 Calma 5 Sudoeste 0 -- -- 94
2019-11-19 02:00:00 5.2 2 Sudoeste 5 Sudoeste 0 -- -- 93
2019-11-19 01:00:00 6.3 3 Oeste 8 Sur 0 -- -- 93
2019-11-19 00:00:00 6.3 3 Nordeste 7 Noroeste 0 -- -- 91
2019-11-18 23:00:00 6.3 3 Norte 13 Noroeste 0 -- -- 91
2019-11-18 22:00:00 7.1 4 Noroeste 17 Noroeste 0 -- -- 87
2019-11-18 21:00:00 7.8 8 Noroeste 14 Noroeste 0 -- -- 84
2019-11-18 20:00:00 9.3 6 Noroeste 10 Noroeste 0 -- -- 76
2019-11-18 19:00:00 11.5 4 Noroeste 10 Oeste 0 -- -- 69
2019-11-18 18:00:00 14.3 6 Oeste 16 Oeste 0 -- -- 58
2019-11-18 17:00:00 16.6 8 Noroeste 15 Noroeste 0 -- -- 48
2019-11-18 16:00:00 18.3 6 Norte 20 Noroeste 0 -- -- 45
2019-11-18 15:00:00 18 10 Noroeste 18 Nordeste 0 -- -- 47
2019-11-18 14:00:00 16.9 8 Noroeste 23 Norte 0 -- -- 52
2019-11-18 13:00:00 15.4 12 Nordeste 19 Nordeste 0 -- -- 57
2019-11-18 12:00:00 13.8 8 Noroeste 17 Noroeste 0 -- -- 65
2019-11-18 11:00:00 11.1 8 Noroeste 18 Noroeste 0 -- -- 78
2019-11-18 10:00:00 8 9 Noroeste 15 Noroeste 0 -- -- 89
2019-11-18 09:00:00 6.3 9 Noroeste 21 Noroeste 0 -- -- 94
2019-11-18 08:00:00 6.4 9 Noroeste 25 Noroeste 0 -- -- 93
2019-11-18 07:00:00 6.6 15 Noroeste 24 Noroeste 0 -- -- 93
2019-11-18 06:00:00 7 14 Noroeste 25 Oeste 0 -- -- 91
2019-11-18 05:00:00 7 11 Noroeste 25 Noroeste 0 -- -- 90
2019-11-18 04:00:00 7.2 14 Noroeste 24 Noroeste 0 -- -- 88
2019-11-18 03:00:00 7.5 9 Noroeste 27 Noroeste 0 -- -- 86
2019-11-18 02:00:00 8.1 12 Noroeste 26 Noroeste 0 -- -- 86
2019-11-18 01:00:00 9.2 14 Noroeste 28 Oeste 0 -- -- 87
2019-11-18 00:00:00 10.7 17 Noroeste 35 Noroeste 0 -- -- 81
2019-11-17 23:00:00 12.5 19 Noroeste 31 Noroeste 0 -- -- 89
2019-11-17 22:00:00 13 9 Oeste 28 Oeste 0.2 -- -- 95
2019-11-17 21:00:00 13.9 14 Oeste 26 Oeste 0 -- -- 87
2019-11-17 20:00:00 13.9 14 Oeste 28 Oeste 0 -- -- 90
2019-11-17 19:00:00 14.2 15 Oeste 27 Oeste 0 -- -- 90
2019-11-17 18:00:00 14.3 14 Oeste 32 Oeste 1.4 -- -- 91
2019-11-17 17:00:00 14.5 9 Oeste 28 Oeste 3 -- -- 93
2019-11-17 16:00:00 16.1 12 Sudoeste 26 Oeste 0 -- -- 84
2019-11-17 15:00:00 16.3 14 Sudoeste 28 Sudoeste 0 -- -- 82
2019-11-17 14:00:00 15.4 12 Sudoeste 23 Oeste 0 -- -- 91
2019-11-17 13:00:00 13.5 15 Sudoeste 25 Sudoeste 0.4 -- -- 98
2019-11-17 12:00:00 11.6 12 Sudoeste 27 Sudoeste 0 -- -- 99
2019-11-17 11:00:00 10.2 14 Sudoeste 31 Sudoeste 0 -- -- 99
2019-11-17 10:00:00 9.1 13 Sudoeste 27 Sudoeste 0 -- -- 98
2019-11-17 09:00:00 8.4 13 Sudoeste 28 Sudoeste 0 -- -- 98
2019-11-17 08:00:00 7.8 11 Sudoeste 23 Sur 0.6 -- -- 97
2019-11-17 07:00:00 8 9 Sudoeste 22 Sudoeste 0.2 -- -- 97
2019-11-17 06:00:00 7.7 10 Sur 17 Sur 0.4 -- -- 96
2019-11-17 05:00:00 7.6 8 Sudoeste 16 Sudoeste 0.6 -- -- 94
2019-11-17 04:00:00 7.8 6 Sur 12 Sur 0 -- -- 91
2019-11-17 03:00:00 8.3 6 Sudoeste 14 Sudoeste 0 -- -- 82
2019-11-17 02:00:00 8.6 9 Sudoeste 15 Sudoeste 0 -- -- 74
2019-11-17 01:00:00 8.8 6 Sudoeste 13 Sudoeste 0 -- -- 73
2019-11-17 00:00:00 8.3 6 Sudoeste 13 Oeste 0 -- -- 74
2019-11-16 23:00:00 7.4 6 Oeste 13 Oeste 0 -- -- 76
2019-11-16 22:00:00 7.5 3 Sudoeste 9 Oeste 0 -- -- 74
2019-11-16 21:00:00 8.7 2 Oeste 14 Oeste 0 -- -- 67
2019-11-16 20:00:00 10.3 8 Oeste 17 Oeste 0 -- -- 61
2019-11-16 19:00:00 10.9 8 Oeste 14 Oeste 0 -- -- 58
2019-11-16 18:00:00 12.9 12 Noroeste 26 Noroeste 0 -- -- 51
2019-11-16 17:00:00 14.5 13 Noroeste 27 Oeste 0 -- -- 44
2019-11-16 16:00:00 14.8 17 Oeste 28 Oeste 0 -- -- 42
2019-11-16 15:00:00 14.7 7 Sudoeste 16 Oeste 0 -- -- 44
2019-11-16 14:00:00 15.6 6 Sudoeste 17 Noroeste 0 -- -- 39
2019-11-16 13:00:00 15 9 Noroeste 15 Noroeste 0 -- -- 46
2019-11-16 12:00:00 12.7 6 Noroeste 14 Oeste 0 -- -- 53
2019-11-16 11:00:00 8.5 4 Noroeste 9 Oeste 0 -- -- 68
2019-11-16 10:00:00 3 3 Oeste 6 Noroeste 0 -- -- 96
2019-11-16 09:00:00 -0.4 0 Calma 4 Sudoeste 0 -- -- 94
2019-11-16 08:00:00 0 3 Sudoeste 7 Oeste 0 -- -- 93
2019-11-16 07:00:00 0.8 0 Calma 6 Noroeste 0 -- -- 92
2019-11-16 06:00:00 1.9 2 Sur 12 Noroeste 0 -- -- 91
2019-11-16 05:00:00 2.4 0 Calma 10 Noroeste 0 -- -- 87
2019-11-16 04:00:00 2.9 4 Oeste 11 Noroeste 0 -- -- 82
2019-11-16 03:00:00 4.5 2 Sudoeste 19 Oeste 0 -- -- 82
2019-11-16 02:00:00 5 11 Noroeste 19 Noroeste 0 -- -- 81
2019-11-16 01:00:00 5 9 Noroeste 18 Noroeste 0 -- -- 78
2019-11-16 00:00:00 5.5 9 Noroeste 24 Noroeste 0 -- -- 76
2019-11-15 23:00:00 6.3 13 Noroeste 25 Noroeste 0 -- -- 73
2019-11-15 22:00:00 6.8 10 Noroeste 23 Noroeste 0 -- -- 69
2019-11-15 21:00:00 7.8 13 Noroeste 30 Noroeste 0 -- -- 64
2019-11-15 20:00:00 8.6 14 Noroeste 22 Oeste 0 -- -- 60
2019-11-15 19:00:00 9.8 15 Noroeste 30 Noroeste 0 -- -- 55
2019-11-15 18:00:00 11.8 18 Noroeste 41 Noroeste 0 -- -- 48
2019-11-15 17:00:00 13.6 18 Noroeste 36 Oeste 0 -- -- 43
2019-11-15 16:00:00 14.9 19 Noroeste 34 Noroeste 0 -- -- 38
2019-11-15 15:00:00 14.8 19 Noroeste 37 Oeste 0 -- -- 42
2019-11-15 14:00:00 14.7 22 Noroeste 37 Oeste 0 -- -- 45
2019-11-15 13:00:00 14.3 17 Noroeste 33 Oeste 0 -- -- 50
2019-11-15 12:00:00 12.3 18 Noroeste 35 Noroeste 0 -- -- 55
2019-11-15 11:00:00 9.9 21 Noroeste 42 Noroeste 0 -- -- 67
2019-11-15 10:00:00 7.8 21 Noroeste 34 Noroeste 0 -- -- 76
2019-11-15 09:00:00 6.4 12 Noroeste 24 Oeste 0 -- -- 82
2019-11-15 08:00:00 6.8 7 Noroeste 16 Noroeste 0 -- -- 81
2019-11-15 07:00:00 6.8 7 Oeste 15 Oeste 0 -- -- 81
2019-11-15 06:00:00 6.9 10 Oeste 31 Oeste 0 -- -- 79
2019-11-15 05:00:00 7 14 Noroeste 30 Noroeste 0 -- -- 81
2019-11-15 04:00:00 7 11 Noroeste 31 Noroeste 0 -- -- 82
2019-11-15 03:00:00 7.4 16 Noroeste 29 Noroeste 0 -- -- 81
2019-11-15 02:00:00 7.3 11 Oeste 23 Oeste 0 -- -- 79
2019-11-15 01:00:00 7.6 6 Oeste 34 Oeste 0 -- -- 78
2019-11-15 00:00:00 8.2 20 Oeste 36 Oeste 0 -- -- 75
2019-11-14 23:00:00 8.4 17 Noroeste 33 Noroeste 0 -- -- 74
2019-11-14 22:00:00 9.6 13 Noroeste 29 Oeste 0 -- -- 69
2019-11-14 21:00:00 9.9 13 Oeste 27 Oeste 0 -- -- 74
2019-11-14 20:00:00 10.8 13 Oeste 30 Oeste 0 -- -- 78
2019-11-14 19:00:00 10.7 15 Oeste 35 Noroeste 0 -- -- 80
2019-11-14 18:00:00 10 12 Oeste 62 Oeste 1.6 -- -- 86
2019-11-14 17:00:00 13.1 30 Noroeste 55 Noroeste 0 -- -- 60
2019-11-14 16:00:00 15 31 Noroeste 61 Noroeste 0 -- -- 49
2019-11-14 15:00:00 14.8 25 Noroeste 52 Oeste 0 -- -- 54
2019-11-14 14:00:00 14.8 24 Noroeste 55 Oeste 0 -- -- 51
2019-11-14 13:00:00 13.9 30 Noroeste 52 Noroeste 0 -- -- 58
2019-11-14 12:00:00 12.8 24 Noroeste 50 Oeste 0 -- -- 67
2019-11-14 11:00:00 11.5 18 Oeste 36 Oeste 0 -- -- 79
2019-11-14 10:00:00 11.2 22 Noroeste 47 Oeste 0 -- -- 83
2019-11-14 09:00:00 11.4 12 Oeste 33 Oeste 0.4 -- -- 85
2019-11-14 08:00:00 12.4 14 Oeste 36 Oeste 0 -- -- 86
2019-11-14 07:00:00 12.6 18 Oeste 38 Oeste 0 -- -- 83
2019-11-14 06:00:00 11.5 15 Sudoeste 31 Sudoeste 0 -- -- 89
2019-11-14 05:00:00 11.1 13 Sudoeste 27 Sudoeste 0 -- -- 91
2019-11-14 04:00:00 10.6 12 Sudoeste 21 Sudoeste 0 -- -- 91
2019-11-14 03:00:00 10.3 9 Sudoeste 25 Oeste 0 -- -- 88
2019-11-14 02:00:00 11.4 12 Oeste 31 Oeste 0 -- -- 83
2019-11-14 01:00:00 11.3 16 Oeste 30 Oeste 0 -- -- 85
2019-11-14 00:00:00 11.6 11 Oeste 24 Noroeste 0 -- -- 80
2019-11-13 23:00:00 12 14 Noroeste 30 Oeste 0 -- -- 75
2019-11-13 22:00:00 12.3 13 Oeste 30 Oeste 0 -- -- 77
2019-11-13 21:00:00 13.3 12 Oeste 28 Noroeste 0 -- -- 76
2019-11-13 20:00:00 14.3 14 Oeste 26 Oeste 0 -- -- 76
2019-11-13 19:00:00 15.8 14 Oeste 30 Oeste 0 -- -- 71
2019-11-13 18:00:00 17.6 15 Oeste 29 Oeste 0 -- -- 66
2019-11-13 17:00:00 19 13 Oeste 38 Oeste 0 -- -- 62
2019-11-13 16:00:00 19.2 23 Noroeste 40 Noroeste 0 -- -- 63
2019-11-13 15:00:00 20.2 22 Noroeste 39 Oeste 0 -- -- 58
2019-11-13 14:00:00 19.2 15 Oeste 30 Oeste 0 -- -- 63
2019-11-13 13:00:00 19.5 20 Noroeste 40 Oeste 0 -- -- 65
2019-11-13 12:00:00 18.3 22 Noroeste 42 Noroeste 0 -- -- 73
2019-11-13 11:00:00 16.6 19 Noroeste 32 Oeste 0 -- -- 81
2019-11-13 10:00:00 15.1 13 Oeste 25 Oeste 0 -- -- 86
2019-11-13 09:00:00 13.7 6 Sudoeste 21 Sudoeste 1 -- -- 97
2019-11-13 08:00:00 13.5 13 Sudoeste 31 Sudoeste 0 -- -- 97
2019-11-13 07:00:00 13.3 13 Sudoeste 26 Sudoeste 0.2 -- -- 96
2019-11-13 06:00:00 13.7 11 Sudoeste 25 Sudoeste 0 -- -- 93
2019-11-13 05:00:00 14.6 15 Sudoeste 30 Oeste 0 -- -- 85
2019-11-13 04:00:00 14.7 14 Oeste 28 Sudoeste 0 -- -- 83
2019-11-13 03:00:00 14.3 9 Oeste 23 Sudoeste 0 -- -- 83
2019-11-13 02:00:00 13.8 9 Sudoeste 20 Sudoeste 0 -- -- 87
2019-11-13 01:00:00 14.2 13 Sudoeste 27 Oeste 0 -- -- 85
2019-11-13 00:00:00 13.7 10 Sudoeste 22 Sudoeste 0 -- -- 86
2019-11-12 23:00:00 13.5 12 Sudoeste 22 Sudoeste 0 -- -- 87
2019-11-12 22:00:00 13.3 11 Sudoeste 22 Sudoeste 0 -- -- 85
2019-11-12 21:00:00 13.9 11 Sudoeste 22 Sudoeste 0 -- -- 80
2019-11-12 20:00:00 14.5 9 Oeste 18 Oeste 0 -- -- 74
2019-11-12 19:00:00 15.1 8 Oeste 32 Oeste 0 -- -- 70
2019-11-12 18:00:00 15.9 12 Oeste 31 Noroeste 0 -- -- 63
2019-11-12 17:00:00 17.1 15 Oeste 28 Oeste 0 -- -- 56
2019-11-12 16:00:00 19 14 Noroeste 31 Oeste 0 -- -- 48
2019-11-12 15:00:00 19.4 13 Noroeste 28 Noroeste 0 -- -- 45
2019-11-12 14:00:00 18.9 14 Noroeste 27 Oeste 0 -- -- 47
2019-11-12 13:00:00 17.8 14 Noroeste 31 Noroeste 0 -- -- 50
2019-11-12 12:00:00 16.5 12 Noroeste 27 Noroeste 0 -- -- 55
2019-11-12 11:00:00 13.6 12 Noroeste 19 Noroeste 0 -- -- 66
2019-11-12 10:00:00 8.6 9 Noroeste 14 Noroeste 0 -- -- 100
2019-11-12 09:00:00 6.3 4 Oeste 6 Oeste 0 -- -- 99
2019-11-12 08:00:00 6.1 2 Oeste 8 Sur 0 -- -- 98
2019-11-12 07:00:00 5.4 3 Noroeste 8 Noroeste 0 -- -- 98
2019-11-12 06:00:00 5.6 0 Calma 3 Sur 0 -- -- 96
2019-11-12 05:00:00 6.1 0 Calma 5 Sudeste 0 -- -- 95
2019-11-12 04:00:00 7.5 0 Calma 5 Noroeste 0 -- -- 94
2019-11-12 03:00:00 8.9 3 Oeste 6 Oeste 0 -- -- 93
2019-11-12 02:00:00 10.2 3 Noroeste 15 Oeste 0 -- -- 91
2019-11-12 01:00:00 10.5 6 Noroeste 14 Noroeste 0 -- -- 91
2019-11-12 00:00:00 11.3 10 Noroeste 29 Noroeste 0 -- -- 88